Time;durP1;ratioP1;P1;durP2;ratioP2;P2;SDS_P1;SDS_P2;PMS_P1;PMS_P2;Temp;Humidity;BMP_temperature;BMP_pressure;BME280_temperature;BME280_humidity;BME280_pressure;Samples;Min_cycle;Max_cycle;Signal;HPM_P1;HPM_P2
2022/09/01 00:00:59;;;;;;;;;;;;;;;27.89;48.88;96480.94;5096316;28;20289;-34
2022/09/01 00:03:25;;;;;;;;;;;;;;;27.90;49.23;96476.13;5096149;28;19961;-34
2022/09/01 00:05:53;;;;;;;;;;;;;;;27.89;49.03;96469.81;5096231;28;19908;-34
2022/09/01 00:08:19;;;;;;;;;;;;;;;27.92;49.28;96479.13;5096408;28;20388;-34
2022/09/01 00:10:45;;;;;;;;;;;;;;;27.91;49.04;96485.97;5096090;28;19908;-34
2022/09/01 00:13:11;;;;;;;;;;;;;;;27.91;48.90;96480.41;5096081;28;19943;-34
2022/09/01 00:15:36;;;;;;;;;;;;;;;27.92;49.16;96456.81;5096186;28;19908;-34
2022/09/01 00:18:02;;;;;;;;;;;;;;;27.89;49.15;96455.88;5096276;28;19950;-35
2022/09/01 00:20:27;;;;;;;;;;;;;;;27.92;48.98;96456.06;5096056;28;19912;-35
2022/09/01 00:22:54;;;;;;;;;;;;;;;27.90;48.84;96462.19;5095924;28;19912;-34
2022/09/01 00:25:19;;;;;;;;;;;;;;;27.89;49.32;96446.75;5095801;28;19916;-35
2022/09/01 00:27:45;;;;;;;;;;;;;;;27.88;48.94;96446.00;5096338;28;20374;-34
2022/09/01 00:30:11;;;;;;;;;;;;;;;27.86;49.26;96450.63;5095824;28;19915;-34
2022/09/01 00:32:36;;;;;;;;;;;;;;;27.85;49.10;96451.91;5095796;28;19958;-34
2022/09/01 00:35:02;;;;;;;;;;;;;;;27.88;48.89;96445.25;5095565;28;19907;-34
2022/09/01 00:37:28;;;;;;;;;;;;;;;27.88;49.02;96450.81;5095574;28;19943;-35
2022/09/01 00:39:53;;;;;;;;;;;;;;;27.85;49.29;96446.34;5095729;28;20353;-34
2022/09/01 00:42:18;;;;;;;;;;;;;;;27.83;49.39;96443.34;5095527;28;19923;-34
2022/09/01 00:44:44;;;;;;;;;;;;;;;27.86;48.81;96436.69;5095342;28;19989;-34
2022/09/01 00:47:09;;;;;;;;;;;;;;;27.84;49.06;96442.78;5095720;28;19958;-34
2022/09/01 00:49:37;;;;;;;;;;;;;;;27.82;49.33;96441.84;5095314;28;20331;-34
2022/09/01 00:52:09;;;;;;;;;;;;;;;27.83;49.37;96448.91;5095485;28;19914;-34
2022/09/01 00:54:38;;;;;;;;;;;;;;;27.82;49.33;96439.78;5095484;28;20382;-34
2022/09/01 00:57:04;;;;;;;;;;;;;;;27.88;49.38;96445.25;5095220;28;19969;-35
2022/09/01 00:59:30;;;;;;;;;;;;;;;27.86;49.45;96443.00;5095132;28;19912;-35
2022/09/01 01:01:56;;;;;;;;;;;;;;;27.85;49.32;96435.19;5095096;28;20297;-35
2022/09/01 01:04:23;;;;;;;;;;;;;;;27.87;49.07;96438.94;5095841;28;19935;-35
2022/09/01 01:06:57;;;;;;;;;;;;;;;27.85;49.20;96440.75;5095043;28;19915;-34
2022/09/01 01:09:24;;;;;;;;;;;;;;;27.86;49.35;96442.25;5095390;28;19908;-35
2022/09/01 01:11:49;;;;;;;;;;;;;;;27.86;49.39;96450.63;5095033;28;19916;-35
2022/09/01 01:14:16;;;;;;;;;;;;;;;27.85;49.04;96435.19;5095135;28;19912;-35
2022/09/01 01:16:43;;;;;;;;;;;;;;;27.83;49.50;96446.13;5094917;28;20297;-34
2022/09/01 01:25:06;;;;;;;;;;;;;;;27.83;49.49;96448.91;5095030;28;19915;-34
2022/09/01 01:27:32;;;;;;;;;;;;;;;27.83;49.69;96443.34;5094151;28;19919;-34
2022/09/01 01:29:59;;;;;;;;;;;;;;;27.84;49.44;96434.44;5094607;28;19908;-34
2022/09/01 01:32:25;;;;;;;;;;;;;;;27.85;49.46;96446.34;5094691;28;19940;-34
2022/09/01 01:34:50;;;;;;;;;;;;;;;27.85;49.18;96440.75;5094553;28;19914;-34
2022/09/01 01:37:17;;;;;;;;;;;;;;;27.81;49.46;96441.13;5094512;28;19915;-35
2022/09/01 01:39:43;;;;;;;;;;;;;;;27.83;49.70;96451.69;5094648;28;19908;-34
2022/09/01 01:42:09;;;;;;;;;;;;;;;27.84;49.26;96451.16;5094499;28;19951;-34
2022/09/01 01:44:36;;;;;;;;;;;;;;;27.83;49.26;96446.13;5094381;28;20008;-35
2022/09/01 01:47:08;;;;;;;;;;;;;;;27.82;49.57;96450.94;5094508;28;19998;-35
2022/09/01 01:49:34;;;;;;;;;;;;;;;27.82;49.30;96444.63;5094615;28;19908;-35
2022/09/01 01:52:00;;;;;;;;;;;;;;;27.82;49.29;96445.38;5094200;28;19919;-35
2022/09/01 01:54:30;;;;;;;;;;;;;;;27.84;49.73;96436.47;5094432;28;19908;-36
2022/09/01 01:56:56;;;;;;;;;;;;;;;27.80;49.67;96439.63;5076018;28;20002;-34
2022/09/01 01:59:23;;;;;;;;;;;;;;;27.80;49.65;96434.03;5094336;28;19908;-34
2022/09/01 02:01:49;;;;;;;;;;;;;;;27.81;49.57;96429.22;5094355;28;20467;-34
2022/09/01 02:04:15;;;;;;;;;;;;;;;27.80;49.81;96428.47;5094263;28;19908;-34
2022/09/01 02:06:44;;;;;;;;;;;;;;;27.80;49.42;96427.72;5094134;28;19961;-34
2022/09/01 02:09:10;;;;;;;;;;;;;;;27.83;49.64;96418.25;5093964;28;20010;-34
2022/09/01 02:11:36;;;;;;;;;;;;;;;27.80;49.42;96417.31;5094055;28;19936;-34
2022/09/01 02:14:02;;;;;;;;;;;;;;;27.81;49.63;96420.84;5093940;28;19908;-34
2022/09/01 02:16:28;;;;;;;;;;;;;;;27.83;49.84;96412.69;5093950;28;20285;-35
2022/09/01 02:18:54;;;;;;;;;;;;;;;27.79;49.66;96424.19;5094083;28;20004;-35
2022/09/01 02:21:21;;;;;;;;;;;;;;;27.79;49.99;96412.28;5094070;28;19947;-35
2022/09/01 02:23:48;;;;;;;;;;;;;;;27.81;49.80;96418.06;5093737;28;19912;-34
2022/09/01 02:26:15;;;;;;;;;;;;;;;27.82;49.46;96413.97;5093894;28;20045;-34
2022/09/01 02:28:41;;;;;;;;;;;;;;;27.80;49.87;96422.91;5094016;28;19912;-35
2022/09/01 02:31:08;;;;;;;;;;;;;;;27.80;49.54;96424.94;5094395;28;19953;-34
2022/09/01 02:33:34;;;;;;;;;;;;;;;27.81;49.54;96420.84;5093860;28;19908;-34
2022/09/01 02:36:00;;;;;;;;;;;;;;;27.79;50.13;96426.97;5094016;28;19922;-34
2022/09/01 02:38:27;;;;;;;;;;;;;;;27.79;50.03;96426.97;5093868;28;19908;-34
2022/09/01 02:40:53;;;;;;;;;;;;;;;27.79;49.68;96415.06;5096622;28;19908;-34
2022/09/01 02:43:20;;;;;;;;;;;;;;;27.82;49.67;96419.53;5097583;28;19923;-34
2022/09/01 02:45:58;;;;;;;;;;;;;;;27.81;49.81;96406.91;5097935;28;19915;-34
2022/09/01 02:48:26;;;;;;;;;;;;;;;27.81;49.52;96415.28;5097892;28;20409;-34
2022/09/01 02:50:52;;;;;;;;;;;;;;;27.77;50.12;96410.03;5097642;28;19933;-35
2022/09/01 02:53:19;;;;;;;;;;;;;;;27.78;49.76;96403.19;5098076;28;19908;-34
2022/09/01 02:55:45;;;;;;;;;;;;;;;27.77;50.12;96407.25;5097524;28;20365;-34
2022/09/01 02:58:15;;;;;;;;;;;;;;;27.79;50.06;96401.13;5079792;28;19908;-35
2022/09/01 03:00:40;;;;;;;;;;;;;;;27.77;49.88;96400.94;5097429;28;19912;-34
2022/09/01 03:03:06;;;;;;;;;;;;;;;27.79;49.61;96392.78;5098072;28;20368;-35
2022/09/01 03:05:33;;;;;;;;;;;;;;;27.79;49.79;96395.56;5097336;28;19908;-34
2022/09/01 03:08:03;;;;;;;;;;;;;;;27.77;49.83;96384.97;5097264;28;19917;-35
2022/09/01 03:10:34;;;;;;;;;;;;;;;27.79;50.10;96384.41;5097637;28;20422;-34
2022/09/01 03:13:04;;;;;;;;;;;;;;;27.78;49.89;96389.25;5097374;28;19912;-34
2022/09/01 03:15:29;;;;;;;;;;;;;;;27.79;50.05;96392.78;5097337;28;19908;-34
2022/09/01 03:17:56;;;;;;;;;;;;;;;27.77;49.98;96384.22;5097374;28;20002;-34
2022/09/01 03:20:22;;;;;;;;;;;;;;;27.74;50.14;96365.78;5097150;28;19908;-35
2022/09/01 03:22:48;;;;;;;;;;;;;;;27.75;49.99;96362.47;5097197;28;19912;-35
2022/09/01 03:25:13;;;;;;;;;;;;;;;27.77;49.77;96350.78;5097327;28;20342;-34
2022/09/01 03:27:39;;;;;;;;;;;;;;;27.74;50.21;96358.16;5078887;28;19919;-34
2022/09/01 03:30:05;;;;;;;;;;;;;;;27.75;49.86;96354.09;5096887;28;20041;-34
2022/09/01 03:32:31;;;;;;;;;;;;;;;27.76;49.74;96354.84;5096710;28;19915;-34
2022/09/01 03:34:56;;;;;;;;;;;;;;;27.77;50.06;96350.78;5097132;28;20282;-34
2022/09/01 03:37:22;;;;;;;;;;;;;;;27.75;50.25;96364.50;5096740;28;19908;-34
2022/09/01 03:39:47;;;;;;;;;;;;;;;27.77;49.86;96353.56;5097460;28;19915;-34
2022/09/01 03:42:24;;;;;;;;;;;;;;;27.75;50.12;96342.19;5096806;28;19919;-34
2022/09/01 03:44:50;;;;;;;;;;;;;;;27.75;49.95;96347.78;5095484;28;20290;-34
2022/09/01 03:47:16;;;;;;;;;;;;;;;27.73;50.00;96344.78;5095570;28;20369;-36
2022/09/01 03:49:42;;;;;;;;;;;;;;;27.75;50.02;96339.41;5095326;28;20006;-34
2022/09/01 03:52:09;;;;;;;;;;;;;;;27.74;49.95;96335.88;5094998;28;20358;-34
2022/09/01 03:54:35;;;;;;;;;;;;;;;27.76;50.21;96343.69;5095396;28;20258;-34
2022/09/01 03:57:00;;;;;;;;;;;;;;;27.74;50.28;96346.28;5095643;28;19998;-35
2022/09/01 03:59:27;;;;;;;;;;;;;;;27.74;50.20;96355.38;5095351;28;19908;-34
2022/09/01 04:01:52;;;;;;;;;;;;;;;27.73;49.89;96339.97;5095317;28;19919;-34
2022/09/01 04:04:18;;;;;;;;;;;;;;;27.74;50.04;96354.63;5095360;28;19908;-35
2022/09/01 04:06:44;;;;;;;;;;;;;;;27.75;49.77;96356.13;5095435;28;19911;-34
2022/09/01 04:09:10;;;;;;;;;;;;;;;27.72;49.87;96343.28;5095286;28;19916;-34
2022/09/01 04:11:38;;;;;;;;;;;;;;;27.71;50.27;96342.53;5076891;28;20010;-34
2022/09/01 04:14:03;;;;;;;;;;;;;;;27.72;50.09;96344.03;5095113;28;19949;-34
2022/09/01 04:19:18;;;;;;;;;;;;;;;27.70;50.26;96341.03;5095114;28;20321;-34
2022/09/01 04:21:44;;;;;;;;;;;;;;;27.72;50.01;96348.84;5095346;28;19907;-34
2022/09/01 04:24:12;;;;;;;;;;;;;;;27.71;50.30;96359.25;5077004;28;20385;-34
2022/09/01 04:26:37;;;;;;;;;;;;;;;27.70;50.12;96352.19;5094862;28;19908;-34
2022/09/01 04:29:02;;;;;;;;;;;;;;;27.71;50.18;96361.28;5094908;28;20281;-34
2022/09/01 04:31:30;;;;;;;;;;;;;;;27.71;49.85;96362.03;5094861;28;20365;-34
2022/09/01 04:33:55;;;;;;;;;;;;;;;27.71;49.95;96367.59;5094879;28;20328;-34
2022/09/01 04:36:22;;;;;;;;;;;;;;;27.72;49.81;96366.31;5095254;28;19920;-34
2022/09/01 04:38:49;;;;;;;;;;;;;;;27.70;50.17;96371.69;5094785;28;19991;-34
2022/09/01 04:41:16;;;;;;;;;;;;;;;27.69;49.84;96367.44;5094593;28;19914;-34
2022/09/01 04:43:46;;;;;;;;;;;;;;;27.69;49.96;96366.69;5051521;28;1225221;-34
2022/09/01 04:46:13;;;;;;;;;;;;;;;27.69;50.28;96367.44;5095454;28;19911;-34
2022/09/01 04:48:41;;;;;;;;;;;;;;;27.69;49.92;96378.56;5095811;28;19971;-35
2022/09/01 04:51:09;;;;;;;;;;;;;;;27.69;49.85;96377.81;5095384;28;20041;-34
2022/09/01 04:53:34;;;;;;;;;;;;;;;27.68;50.10;96377.06;5095525;28;20053;-34
2022/09/01 04:56:03;;;;;;;;;;;;;;;27.68;50.22;96373.53;5095883;28;19977;-34
2022/09/01 04:58:29;;;;;;;;;;;;;;;27.70;49.91;96384.88;5095298;28;19923;-34
2022/09/01 05:00:55;;;;;;;;;;;;;;;27.71;50.26;96380.78;5095136;28;19911;-34
2022/09/01 05:03:22;;;;;;;;;;;;;;;27.69;50.04;96378.56;5094259;28;20351;-34
2022/09/01 05:05:48;;;;;;;;;;;;;;;27.68;50.02;96377.06;5095190;28;19908;-35
2022/09/01 05:08:15;;;;;;;;;;;;;;;27.68;50.06;96376.31;5095134;28;19908;-34
2022/09/01 05:10:42;;;;;;;;;;;;;;;27.69;50.24;96366.69;5094974;28;19916;-34
2022/09/01 05:13:09;;;;;;;;;;;;;;;27.68;50.14;96370.75;5095184;28;19908;-34
2022/09/01 05:15:38;;;;;;;;;;;;;;;27.69;49.99;96378.56;5095182;28;19995;-34
2022/09/01 05:18:08;;;;;;;;;;;;;;;27.68;50.20;96387.47;5095224;28;19983;-34
2022/09/01 05:20:39;;;;;;;;;;;;;;;27.68;49.97;96381.91;5094793;28;19908;-34
2022/09/01 05:23:05;;;;;;;;;;;;;;;27.68;50.11;96388.22;5094766;28;19916;-34
2022/09/01 05:25:31;;;;;;;;;;;;;;;27.68;50.21;96381.91;5094820;28;20323;-34
2022/09/01 05:27:56;;;;;;;;;;;;;;;27.67;50.01;96375.56;5094844;28;19965;-35
2022/09/01 05:30:21;;;;;;;;;;;;;;;27.69;50.13;96377.81;5095072;28;19914;-34
2022/09/01 05:32:47;;;;;;;;;;;;;;;27.69;50.12;96377.81;5094910;28;19912;-35
2022/09/01 05:35:13;;;;;;;;;;;;;;;27.69;50.07;96377.81;5094484;28;19907;-34
2022/09/01 05:37:38;;;;;;;;;;;;;;;27.68;49.96;96381.91;5094662;28;19908;-35
2022/09/01 05:40:14;;;;;;;;;;;;;;;27.69;50.22;96373.00;5094709;28;20310;-34
2022/09/01 05:42:41;;;;;;;;;;;;;;;27.71;49.89;96389.16;5094138;28;19962;-34
2022/09/01 05:45:07;;;;;;;;;;;;;;;27.68;49.87;96379.88;5094542;28;19923;-34
2022/09/01 05:47:35;;;;;;;;;;;;;;;27.70;50.20;96391.19;5094900;28;19908;-35
2022/09/01 05:50:02;;;;;;;;;;;;;;;27.70;49.82;96379.28;5094403;28;19908;-34
2022/09/01 05:52:30;;;;;;;;;;;;;;;27.70;50.20;96390.44;5094322;28;19908;-34
2022/09/01 05:54:58;;;;;;;;;;;;;;;27.67;49.99;96381.16;5094422;28;19908;-34
2022/09/01 05:57:24;;;;;;;;;;;;;;;27.69;50.21;96386.19;5094322;28;19908;-34
2022/09/01 05:59:52;;;;;;;;;;;;;;;27.67;50.22;96395.06;5094344;28;19965;-34
2022/09/01 06:02:20;;;;;;;;;;;;;;;27.67;50.35;96392.28;5094404;28;19915;-34
2022/09/01 06:04:45;;;;;;;;;;;;;;;27.68;50.20;96398.63;5094092;28;20370;-34
2022/09/01 06:07:13;;;;;;;;;;;;;;;27.69;50.03;96386.19;5094026;28;19937;-34
2022/09/01 06:09:42;;;;;;;;;;;;;;;27.67;50.00;96388.75;5094363;28;19914;-34
2022/09/01 06:12:16;;;;;;;;;;;;;;;27.67;49.98;96388.75;5094349;28;19908;-34
2022/09/01 06:14:41;;;;;;;;;;;;;;;27.68;50.40;96395.81;5093787;28;19943;-34
2022/09/01 06:17:08;;;;;;;;;;;;;;;27.68;50.15;96395.81;5093925;28;20275;-34
2022/09/01 06:19:34;;;;;;;;;;;;;;;27.66;50.46;96406.75;5094017;28;19908;-34
2022/09/01 06:22:00;;;;;;;;;;;;;;;27.69;50.03;96400.13;5093785;28;19965;-34
2022/09/01 06:24:27;;;;;;;;;;;;;;;27.69;50.36;96398.06;5093886;28;20301;-34
2022/09/01 06:26:53;;;;;;;;;;;;;;;27.68;50.20;96401.41;5094346;28;19908;-35
2022/09/01 06:29:19;;;;;;;;;;;;;;;27.67;50.46;96400.66;5093812;28;19954;-34
2022/09/01 06:31:50;;;;;;;;;;;;;;;27.68;50.36;96410.50;5093962;28;19953;-34
2022/09/01 06:34:17;;;;;;;;;;;;;;;27.70;49.98;96415.50;5093897;28;19908;-34
2022/09/01 06:36:42;;;;;;;;;;;;;;;27.68;50.65;96404.19;5093715;28;19998;-34
2022/09/01 06:39:08;;;;;;;;;;;;;;;27.67;50.37;96405.47;5093822;28;19956;-34
2022/09/01 06:41:35;;;;;;;;;;;;;;;27.67;50.28;96403.44;5093667;28;19915;-34
2022/09/01 06:44:00;;;;;;;;;;;;;;;27.67;50.14;96399.91;5093415;28;19920;-34
2022/09/01 06:46:26;;;;;;;;;;;;;;;27.69;50.66;96416.84;5093459;28;20041;-35
2022/09/01 06:48:53;;;;;;;;;;;;;;;27.66;50.49;96412.34;5093480;28;19993;-34
2022/09/01 06:51:20;;;;;;;;;;;;;;;27.69;50.40;96411.25;5095995;28;19912;-34
2022/09/01 06:53:55;;;;;;;;;;;;;;;27.67;50.31;96414.59;5092352;28;19912;-34
2022/09/01 06:56:21;;;;;;;;;;;;;;;27.64;50.28;96409.34;5105567;28;19996;-34
2022/09/01 06:58:47;;;;;;;;;;;;;;;27.67;50.40;96405.47;5112472;28;19961;-34
2022/09/01 07:01:18;;;;;;;;;;;;;;;27.68;50.57;96409.75;5112587;28;19908;-34
2022/09/01 07:03:44;;;;;;;;;;;;;;;27.67;50.60;96399.91;5112447;28;20277;-34
2022/09/01 07:06:09;;;;;;;;;;;;;;;27.71;50.39;96397.50;5112705;28;19912;-34
2022/09/01 07:08:38;;;;;;;;;;;;;;;27.68;50.28;96399.38;5098428;28;19908;-34
2022/09/01 07:11:07;;;;;;;;;;;;;;;27.67;50.67;96402.69;5092218;28;20342;-35
2022/09/01 07:13:34;;;;;;;;;;;;;;;27.64;50.67;96398.19;5091702;28;19957;-34
2022/09/01 07:15:59;;;;;;;;;;;;;;;27.59;50.79;96407.41;5092217;28;19919;-34
2022/09/01 07:18:26;;;;;;;;;;;;;;;27.65;50.69;96396.91;5092054;28;20362;-35
2022/09/01 07:20:52;;;;;;;;;;;;;;;27.66;50.14;96396.38;5090553;28;19908;-34
2022/09/01 07:23:18;;;;;;;;;;;;;;;27.66;50.41;96407.50;5091948;28;20358;-34
2022/09/01 07:25:46;;;;;;;;;;;;;;;27.67;50.72;96406.22;5066377;28;20289;-34
2022/09/01 07:28:15;;;;;;;;;;;;;;;27.66;50.75;96420.69;5057499;28;20270;-34
2022/09/01 07:30:47;;;;;;;;;;;;;;;27.67;50.56;96408.25;5075305;28;19919;-35
2022/09/01 07:33:13;;;;;;;;;;;;;;;27.68;50.59;96409.75;5075433;28;19919;-34
2022/09/01 07:35:40;;;;;;;;;;;;;;;27.63;50.82;96413.41;5075328;28;19914;-34
2022/09/01 07:38:08;;;;;;;;;;;;;;;27.67;50.70;96405.47;5075277;28;19916;-34
2022/09/01 07:40:36;;;;;;;;;;;;;;;27.60;51.08;96406.13;5075242;28;19908;-34
2022/09/01 07:43:07;;;;;;;;;;;;;;;27.60;51.04;96400.56;5056920;28;19920;-34
2022/09/01 07:45:33;;;;;;;;;;;;;;;27.56;51.43;96403.69;5110050;28;20040;-34
2022/09/01 07:48:02;;;;;;;;;;;;;;;27.62;50.95;96409.13;5115722;28;19984;-35
2022/09/01 07:50:29;;;;;;;;;;;;;;;27.58;50.71;96411.50;5115540;28;19908;-34
2022/09/01 07:52:54;;;;;;;;;;;;;;;27.54;51.32;96404.19;5115516;28;20277;-34
2022/09/01 07:55:19;;;;;;;;;;;;;;;27.53;51.34;96404.75;5115612;28;19915;-35
2022/09/01 07:57:45;;;;;;;;;;;;;;;27.54;51.28;96403.44;5115349;28;19908;-34
2022/09/01 08:00:11;;;;;;;;;;;;;;;27.58;50.97;96419.84;5115454;28;19915;-34
2022/09/01 08:02:38;;;;;;;;;;;;;;;27.63;50.84;96413.41;5116550;28;20022;-35
2022/09/01 08:05:08;;;;;;;;;;;;;;;27.60;51.05;96412.44;5116471;28;19976;-34
2022/09/01 08:07:33;;;;;;;;;;;;;;;27.63;51.17;96402.25;5115726;28;19907;-34
2022/09/01 08:09:58;;;;;;;;;;;;;;;27.53;51.42;96404.75;5116046;28;19915;-35
2022/09/01 08:12:24;;;;;;;;;;;;;;;27.58;51.37;96400.34;5116600;28;19933;-34
2022/09/01 08:14:51;;;;;;;;;;;;;;;27.43;51.72;96406.50;5116452;28;19950;-34
2022/09/01 08:17:17;;;;;;;;;;;;;;;27.43;51.47;96396.09;5116384;28;19939;-35
2022/09/01 08:19:42;;;;;;;;;;;;;;;27.60;51.08;96397.78;5116579;28;20349;-34
2022/09/01 08:22:08;;;;;;;;;;;;;;;27.63;51.25;96403.00;5116246;28;19938;-34
2022/09/01 08:24:33;;;;;;;;;;;;;;;27.58;51.63;96394.78;5116213;28;20294;-36
2022/09/01 08:26:58;;;;;;;;;;;;;;;27.64;51.00;96403.75;5116120;28;20284;-34
2022/09/01 08:29:24;;;;;;;;;;;;;;;27.64;51.27;96393.38;5116240;28;19914;-34
2022/09/01 08:31:49;;;;;;;;;;;;;;;27.53;51.47;96391.56;5116695;28;19911;-34
2022/09/01 08:34:15;;;;;;;;;;;;;;;27.06;52.47;96396.41;5116089;28;20389;-36
2022/09/01 08:36:41;;;;;;;;;;;;;;;26.59;53.45;96387.91;5115560;28;19943;-35
2022/09/01 08:39:06;;;;;;;;;;;;;;;27.24;52.50;96384.34;5115277;28;19961;-34
2022/09/01 08:41:34;;;;;;;;;;;;;;;27.35;51.75;96375.75;5115617;28;19915;-34
2022/09/01 08:44:18;;;;;;;;;;;;;;;27.31;52.03;96385.75;5115858;28;19998;-34
2022/09/01 08:46:43;;;;;;;;;;;;;;;27.09;53.04;96378.59;5116069;28;19960;-34
2022/09/01 08:49:19;;;;;;;;;;;;;;;27.36;51.83;96390.44;5115919;28;19907;-35
2022/09/01 08:51:50;;;;;;;;;;;;;;;27.14;52.84;96383.31;5115398;28;19962;-34
2022/09/01 08:54:16;;;;;;;;;;;;;;;27.42;51.84;96391.06;5115775;28;19908;-34
2022/09/01 08:56:42;;;;;;;;;;;;;;;27.39;51.59;96387.31;5116139;28;20302;-34
2022/09/01 08:59:09;;;;;;;;;;;;;;;27.54;51.75;96393.06;5115811;28;20357;-34
2022/09/01 09:02:10;;;;;;;;;;;;;;;27.08;52.57;96383.41;5115521;28;19915;-34
2022/09/01 09:04:51;;;;;;;;;;;;;;;27.30;52.15;96390.56;5032880;28;19921;-34
2022/09/01 09:07:35;;;;;;;;;;;;;;;27.46;51.66;96388.69;5033172;28;19932;-35
2022/09/01 09:10:09;;;;;;;;;;;;;;;27.57;50.94;96396.09;5033012;28;19974;-34
2022/09/01 09:12:43;;;;;;;;;;;;;;;27.61;51.03;96382.56;5032687;28;19916;-34
2022/09/01 09:15:11;;;;;;;;;;;;;;;27.58;51.39;96383.63;5033297;28;19909;-34
2022/09/01 09:17:40;;;;;;;;;;;;;;;27.59;51.02;96385.13;5032643;28;19916;-34
2022/09/01 09:20:06;;;;;;;;;;;;;;;27.62;50.93;96389.63;5032697;28;20383;-34
2022/09/01 09:22:31;;;;;;;;;;;;;;;27.51;51.46;96385.78;5032459;28;19917;-34
2022/09/01 09:25:14;;;;;;;;;;;;;;;27.57;51.12;96382.16;5032664;28;19932;-35
2022/09/01 09:27:41;;;;;;;;;;;;;;;27.57;50.85;96391.22;5032658;28;19913;-34
2022/09/01 09:30:08;;;;;;;;;;;;;;;27.63;51.06;96385.56;5033223;28;19957;-35
2022/09/01 09:32:48;;;;;;;;;;;;;;;27.65;50.80;96382.97;5032226;28;20314;-34
2022/09/01 09:35:21;;;;;;;;;;;;;;;27.67;50.85;96374.81;5032509;28;19974;-35
2022/09/01 09:37:47;;;;;;;;;;;;;;;27.62;51.13;96373.66;5047202;28;19907;-34
2022/09/01 09:40:14;;;;;;;;;;;;;;;27.59;51.16;96368.41;5114946;28;19915;-34
2022/09/01 09:42:55;;;;;;;;;;;;;;;27.64;50.89;96359.94;5114628;28;19922;-34
2022/09/01 09:45:20;;;;;;;;;;;;;;;27.65;50.59;96360.69;5114729;28;19922;-34
2022/09/01 09:47:46;;;;;;;;;;;;;;;27.65;51.02;96346.75;5114826;28;19908;-34
2022/09/01 09:50:26;;;;;;;;;;;;;;;27.65;51.02;96353.06;5114617;28;20361;-35
2022/09/01 09:52:52;;;;;;;;;;;;;;;27.66;51.12;96348.25;5114567;28;19908;-34
2022/09/01 09:55:26;;;;;;;;;;;;;;;27.67;51.05;96338.59;5114373;28;19908;-34
2022/09/01 09:57:58;;;;;;;;;;;;;;;27.69;50.89;96338.81;5114438;28;19908;-34
2022/09/01 10:00:32;;;;;;;;;;;;;;;27.50;51.47;96334.16;5102703;28;19912;-35
2022/09/01 10:03:01;;;;;;;;;;;;;;;27.45;51.16;96343.38;5093634;28;19912;-34
2022/09/01 10:05:32;;;;;;;;;;;;;;;26.95;50.97;96340.97;5075959;28;20372;-34
2022/09/01 10:07:57;;;;;;;;;;;;;;;27.04;51.83;96346.09;5094038;28;19908;-34
2022/09/01 10:10:25;;;;;;;;;;;;;;;27.17;51.16;96334.91;5094156;28;19930;-35
2022/09/01 10:12:54;;;;;;;;;;;;;;;26.81;53.06;96337.44;5094032;28;19915;-34
2022/09/01 10:15:27;;;;;;;;;;;;;;;27.22;51.50;96325.66;5093987;28;20269;-34
2022/09/01 10:17:54;;;;;;;;;;;;;;;27.22;50.05;96324.91;5093994;28;19954;-34
2022/09/01 10:20:24;;;;;;;;;;;;;;;26.96;51.35;96325.75;5094353;28;20273;-34
2022/09/01 10:22:50;;;;;;;;;;;;;;;27.05;51.51;96339.22;5094045;28;20315;-35
2022/09/01 10:25:17;;;;;;;;;;;;;;;26.88;51.22;96341.56;5094015;28;19965;-34
2022/09/01 10:27:46;;;;;;;;;;;;;;;27.36;50.38;96348.66;5094017;28;19997;-34
2022/09/01 10:30:19;;;;;;;;;;;;;;;27.30;49.50;96353.63;5093736;28;19908;-34
2022/09/01 10:32:49;;;;;;;;;;;;;;;27.34;49.33;96351.97;5094344;28;19962;-34
2022/09/01 10:35:20;;;;;;;;;;;;;;;27.27;49.92;96358.22;5094353;28;19908;-35
2022/09/01 10:37:48;;;;;;;;;;;;;;;27.05;49.73;96350.38;5093868;28;20037;-34
2022/09/01 10:40:27;;;;;;;;;;;;;;;27.10;50.08;96341.88;5093581;28;19960;-34
2022/09/01 10:42:53;;;;;;;;;;;;;;;27.18;49.28;96336.41;5093406;28;19923;-34
2022/09/01 10:45:21;;;;;;;;;;;;;;;27.09;48.73;96336.84;5093834;28;19917;-34
2022/09/01 10:47:47;;;;;;;;;;;;;;;26.87;50.70;96348.44;5093684;28;20381;-35
2022/09/01 10:50:24;;;;;;;;;;;;;;;27.14;49.61;96355.47;5093671;28;19908;-35
2022/09/01 10:52:53;;;;;;;;;;;;;;;27.42;49.24;96383.47;5093797;28;19919;-34
2022/09/01 10:55:22;;;;;;;;;;;;;;;27.48;49.46;96386.09;5093512;28;19908;-35
2022/09/01 10:57:47;;;;;;;;;;;;;;;27.48;48.92;96389.63;5093534;28;19915;-36
2022/09/01 11:00:18;;;;;;;;;;;;;;;27.56;48.63;96397.38;5094284;28;19908;-34
2022/09/01 11:03:02;;;;;;;;;;;;;;;27.58;48.84;96387.16;5097901;28;20333;-34
2022/09/01 11:05:48;;;;;;;;;;;;;;;27.63;48.53;96391.13;5097329;28;19908;-34
2022/09/01 11:08:28;;;;;;;;;;;;;;;27.65;48.75;96397.66;5097398;28;19914;-35
2022/09/01 11:11:15;;;;;;;;;;;;;;;27.44;48.36;96411.53;5097412;28;19908;-35
2022/09/01 11:13:44;;;;;;;;;;;;;;;27.12;49.34;96413.72;5097649;28;19965;-35
2022/09/01 11:16:26;;;;;;;;;;;;;;;26.97;49.74;96405.91;5097327;28;19944;-34
2022/09/01 11:18:52;;;;;;;;;;;;;;;27.06;49.54;96413.09;5097361;28;20004;-34
2022/09/01 11:21:27;;;;;;;;;;;;;;;27.16;49.14;96412.13;5097111;28;19908;-35
2022/09/01 11:24:12;;;;;;;;;;;;;;;27.21;48.81;96418.09;5097415;28;19944;-34
2022/09/01 11:26:45;;;;;;;;;;;;;;;27.19;48.79;96427.00;5078872;28;19915;-34
2022/09/01 11:29:30;;;;;;;;;;;;;;;26.98;49.37;96428.94;5096953;28;19912;-36
2022/09/01 11:31:56;;;;;;;;;;;;;;;27.23;49.07;96430.19;5097003;28;20275;-34
2022/09/01 11:34:23;;;;;;;;;;;;;;;27.29;48.46;96441.22;5096943;28;19908;-34
2022/09/01 11:36:53;;;;;;;;;;;;;;;27.16;48.80;96433.63;5096822;28;19907;-34
2022/09/01 11:39:21;;;;;;;;;;;;;;;27.15;49.04;96441.25;5097129;28;19914;-34
2022/09/01 11:41:57;;;;;;;;;;;;;;;27.23;49.38;96449.69;5096871;28;19915;-34
2022/09/01 11:44:22;;;;;;;;;;;;;;;27.26;48.93;96448.59;5096639;28;19915;-34
2022/09/01 11:46:49;;;;;;;;;;;;;;;27.29;48.85;96441.97;5096856;28;20007;-34
2022/09/01 11:49:29;;;;;;;;;;;;;;;27.12;49.25;96447.88;5096641;28;19908;-34
2022/09/01 11:51:55;;;;;;;;;;;;;;;27.16;48.97;96453.13;5096480;28;19953;-34
2022/09/01 11:54:21;;;;;;;;;;;;;;;27.34;48.82;96466.16;5096470;28;19912;-34
2022/09/01 11:56:47;;;;;;;;;;;;;;;27.29;48.96;96467.03;5096670;28;19915;-34
2022/09/01 11:59:12;;;;;;;;;;;;;;;27.31;49.04;96458.91;5085442;28;20361;-34
2022/09/01 12:01:38;;;;;;;;;;;;;;;27.27;49.42;96461.25;5069782;28;19915;-34
2022/09/01 12:04:17;;;;;;;;;;;;;;;27.42;48.79;96471.84;5070110;28;20404;-34
2022/09/01 12:06:50;;;;;;;;;;;;;;;27.51;48.98;96488.84;5071580;28;20007;-35
2022/09/01 12:09:15;;;;;;;;;;;;;;;27.49;48.69;96494.19;5070508;28;19920;-34
2022/09/01 12:11:41;;;;;;;;;;;;;;;27.43;49.27;96490.78;5071842;28;19916;-34
2022/09/01 12:14:10;;;;;;;;;;;;;;;27.48;49.02;96484.34;5069478;28;19997;-34
2022/09/01 12:16:38;;;;;;;;;;;;;;;27.56;48.89;96490.06;5070326;28;19920;-34
2022/09/01 12:19:04;;;;;;;;;;;;;;;27.58;49.22;96479.09;5071832;28;19920;-34
2022/09/01 12:21:32;;;;;;;;;;;;;;;27.51;49.37;96458.19;5069778;28;19920;-34
2022/09/01 12:24:15;;;;;;;;;;;;;;;27.53;49.42;96466.78;5068859;28;19955;-34
2022/09/01 12:26:41;;;;;;;;;;;;;;;27.54;49.15;96461.94;5070070;28;19920;-34
2022/09/01 12:29:06;;;;;;;;;;;;;;;27.56;49.76;96453.84;5069352;28;19931;-34
2022/09/01 12:31:32;;;;;;;;;;;;;;;27.56;49.40;96462.19;5068702;28;19916;-34
2022/09/01 12:33:57;;;;;;;;;;;;;;;27.56;49.50;96453.84;5073292;28;19934;-34
2022/09/01 12:36:26;;;;;;;;;;;;;;;27.57;49.38;96455.31;5069008;28;20290;-34
2022/09/01 12:38:54;;;;;;;;;;;;;;;27.56;49.55;96442.69;5067405;28;19973;-34
2022/09/01 12:41:34;;;;;;;;;;;;;;;27.54;49.47;96446.00;5068130;28;19998;-35
2022/09/01 12:44:18;;;;;;;;;;;;;;;27.56;49.81;96450.31;5068785;28;19994;-34
2022/09/01 12:46:44;;;;;;;;;;;;;;;27.54;50.07;96448.03;5070983;28;20289;-34
2022/09/01 12:49:21;;;;;;;;;;;;;;;27.58;49.80;96453.28;5070245;28;19923;-34
2022/09/01 12:51:47;;;;;;;;;;;;;;;27.56;50.04;96453.09;5069196;28;19963;-34
2022/09/01 12:54:13;;;;;;;;;;;;;;;27.58;49.98;96451.22;5063523;28;20011;-35
2022/09/01 12:56:38;;;;;;;;;;;;;;;27.58;49.89;96456.81;5064661;28;19916;-34
2022/09/01 12:59:07;;;;;;;;;;;;;;;27.58;49.87;96456.81;5064378;28;19966;-34
2022/09/01 13:01:33;;;;;;;;;;;;;;;27.57;50.19;96451.81;5065416;28;20450;-34